Modesto City Co-Harry Sham Field
KMOD : rendu visible

Aérodrome :











RETROUVEZ-NOUS SUR...

 
LOGIN :

S'inscrire | Disclaimer

   EN    FR    IT 

 









Légende :    VFR   VFR Marginal   IFR   IFR Intensif   IFR Très Intensif
Visi : 
Plafond : 
>= 8 km
>= 3000ft
5 à 8 km
1000 à 3000 ft
1500m à 5 km
500 à 1000 ft
800 à 1500m
200 à 500 ft
< 800m
< 200 ft
Symboles :   Orages  Brouillard  Fortes neiges  Fortes précipitations  Vent > 20 kt






- Altitude de l'aérodrome : 97 ft
- Code IATA : MOD


KMOD - Modesto City Co-Harry Sham Field

DERNIER METAR :
  • 200753Z AUTO 09003KT 10SM CLR 18/13 A2986 RMK AO2 SLP111 T01780133 402940156 $

METARs EXPIRÉS :
  • 200653Z AUTO 33004KT 10SM CLR 21/13 A2987 RMK AO2 SLP114 T02110128 $
  • 200553Z AUTO 31006KT 10SM CLR 22/12 A2987 RMK AO2 SLP114 T02220122 10294 20211 51006 $

TAF KMOD
Valide du 20 à 06h jusqu'au 21 à 06h UTC


200539Z 2006/2106 32005KT P6SM SKC
FM200800 VRB04KT P6SM SKC
FM202300 32007KT P6SM SKC
FIR KZOA / Amérique du Nord



MET'MAP, la Météo Aéronautique d'un coup d'oeil ! - Copyright ORBIFLY Décembre 2007 - Disclaimer

ORBIFLY MET'MAP TEAM :

Programmation & Développement : Alexandra Zaïnal
Sur une idée originale de : Baudouin d'Aumeries
Assistance à la programmation : Marc-Olivier Méhu
Soutien technique & logistique : Manuel Goepfert

Contact : metmap@orbifly.com




SOURCES & CREDITS :

   NOAA       Earth
Advisory